Time;durP1;ratioP1;P1;durP2;ratioP2;P2;SDS_P1;SDS_P2;PMS_P1;PMS_P2;Temp;Humidity;BMP_temperature;BMP_pressure;BME280_temperature;BME280_humidity;BME280_pressure;Samples;Min_cycle;Max_cycle;Signal;HPM_P1;HPM_P2
2021/04/09 00:01:53;;;;;;;16.92;13.27;;;5.70;94.40;;;;;;5104602;27;20063;-82
2021/04/09 00:04:19;;;;;;;18.15;13.82;;;5.80;94.70;;;;;;5136355;27;20110;-81
2021/04/09 00:06:45;;;;;;;18.27;13.52;;;5.80;94.40;;;;;;5118495;27;20058;-81
2021/04/09 00:09:12;;;;;;;20.25;13.07;;;5.80;94.60;;;;;;5106749;27;20141;-82
2021/04/09 00:11:39;;;;;;;17.88;13.30;;;5.80;94.50;;;;;;5151252;27;20026;-81
2021/04/09 00:14:07;;;;;;;17.95;13.73;;;5.70;95.00;;;;;;5119744;27;20092;-82
2021/04/09 00:16:33;;;;;;;21.25;13.77;;;5.80;94.80;;;;;;5131231;27;20047;-79
2021/04/09 00:19:00;;;;;;;19.42;14.27;;;5.80;94.70;;;;;;5102357;27;20049;-80
2021/04/09 00:21:26;;;;;;;17.65;13.75;;;6.00;95.10;;;;;;5132453;27;20043;-82
2021/04/09 00:23:52;;;;;;;18.02;13.43;;;5.70;95.20;;;;;;5114192;27;20034;-81
2021/04/09 00:26:18;;;;;;;18.23;15.43;;;5.70;95.00;;;;;;5097138;27;20028;-82
2021/04/09 00:28:44;;;;;;;19.30;14.02;;;5.70;95.20;;;;;;5126206;27;20039;-79
2021/04/09 00:31:10;;;;;;;17.92;13.07;;;5.60;95.30;;;;;;5100479;27;20034;-80
2021/04/09 00:33:36;;;;;;;18.38;13.30;;;6.00;95.30;;;;;;5098406;28;20441;-81
2021/04/09 00:36:01;;;;;;;22.80;14.02;;;5.60;95.40;;;;;;5112097;28;20074;-81
2021/04/09 00:38:27;;;;;;;18.65;13.50;;;5.70;95.30;;;;;;5117033;27;20421;-80
2021/04/09 00:40:53;;;;;;;21.48;13.55;;;5.70;95.50;;;;;;5138043;27;20043;-81
2021/04/09 00:43:19;;;;;;;19.88;12.93;;;5.60;95.40;;;;;;5131887;27;20095;-82
2021/04/09 00:45:45;;;;;;;;;;;5.60;95.60;;;;;;5116920;28;20035;-81
2021/04/09 00:48:12;;;;;;;18.10;13.17;;;5.60;95.60;;;;;;5117663;28;20027;-81
2021/04/09 00:50:38;;;;;;;19.65;13.35;;;5.70;95.40;;;;;;5094962;28;20110;-81
2021/04/09 00:53:07;;;;;;;;;;;5.80;95.40;;;;;;5132884;27;20363;-78
2021/04/09 00:55:33;;;;;;;14.77;11.82;;;5.70;95.50;;;;;;5120856;28;19919;-82
2021/04/09 00:58:01;;;;;;;17.52;12.55;;;5.70;95.60;;;;;;5131996;28;20480;-80
2021/04/09 01:00:27;;;;;;;18.45;12.75;;;5.70;95.70;;;;;;5122970;27;20039;-80
2021/04/09 01:02:54;;;;;;;17.13;12.40;;;5.60;95.90;;;;;;5134176;28;20039;-80
2021/04/09 01:05:20;;;;;;;16.33;12.40;;;5.70;95.90;;;;;;5112384;28;20061;-80
2021/04/09 01:07:47;;;;;;;17.92;13.13;;;5.70;96.30;;;;;;5114182;28;20039;-79
2021/04/09 01:10:15;;;;;;;18.05;12.38;;;5.70;95.90;;;;;;5131419;28;20829;-80
2021/04/09 01:12:41;;;;;;;19.25;12.85;;;5.80;95.80;;;;;;5105953;28;20114;-78
2021/04/09 01:15:09;;;;;;;17.65;13.68;;;5.70;96.00;;;;;;5122242;27;20043;-80
2021/04/09 01:17:40;;;;;;;16.55;12.07;;;5.70;96.10;;;;;;5143271;27;20387;-81
2021/04/09 01:20:05;;;;;;;18.95;13.00;;;5.80;95.90;;;;;;5119910;28;20034;-81
2021/04/09 01:22:39;;;;;;;20.13;13.02;;;6.00;96.20;;;;;;5113290;28;20031;-81
2021/04/09 01:25:05;;;;;;;18.60;12.73;;;5.80;96.10;;;;;;5124441;27;20066;-79
2021/04/09 01:28:01;;;;;;;14.65;11.15;;;5.80;96.00;;;;;;5139092;27;20043;-80
2021/04/09 01:31:05;;;;;;;17.17;12.57;;;5.80;96.20;;;;;;5110318;28;20039;-80
2021/04/09 01:33:40;;;;;;;18.33;12.65;;;5.80;96.50;;;;;;5123453;27;20168;-80
2021/04/09 01:36:14;;;;;;;18.95;13.18;;;5.70;96.70;;;;;;5152536;27;20054;-80
2021/04/09 01:38:44;;;;;;;18.10;12.75;;;5.80;96.50;;;;;;5128580;27;20031;-79
2021/04/09 01:41:13;;;;;;;19.75;12.23;;;5.80;96.50;;;;;;5142299;27;20047;-81
2021/04/09 01:43:40;;;;;;;18.30;13.52;;;5.80;96.60;;;;;;5146546;27;20031;-79
2021/04/09 01:46:08;;;;;;;20.20;13.98;;;5.90;96.60;;;;;;5115385;27;20046;-80
2021/04/09 01:48:38;;;;;;;16.27;12.80;;;5.90;96.60;;;;;;5118283;27;20513;-81
2021/04/09 01:51:08;;;;;;;17.58;13.55;;;5.90;96.50;;;;;;5119042;27;20059;-81
2021/04/09 01:53:35;;;;;;;21.13;13.88;;;5.90;96.70;;;;;;5117169;27;20099;-80
2021/04/09 01:56:01;;;;;;;17.15;11.25;;;5.90;97.00;;;;;;5116390;27;20118;-81
2021/04/09 01:58:29;;;;;;;17.30;11.98;;;5.80;96.90;;;;;;5098406;27;20498;-80
2021/04/09 02:00:57;;;;;;;15.40;11.90;;;5.80;97.10;;;;;;5149041;27;20459;-80
2021/04/09 02:03:24;;;;;;;17.10;12.02;;;5.80;97.10;;;;;;5120773;27;20035;-80
2021/04/09 02:05:52;;;;;;;18.45;14.18;;;5.80;97.50;;;;;;5116511;27;20035;-80
2021/04/09 02:08:19;;;;;;;17.05;11.05;;;5.90;97.50;;;;;;5084862;27;20432;-79
2021/04/09 02:10:47;;;;;;;17.00;13.65;;;5.80;97.30;;;;;;5117817;27;20059;-80
2021/04/09 02:13:13;;;;;;;17.88;12.00;;;5.80;97.60;;;;;;5122016;27;20557;-80
2021/04/09 02:15:39;;;;;;;17.45;13.13;;;5.80;97.70;;;;;;5115030;27;20126;-82
2021/04/09 02:18:06;;;;;;;19.60;13.45;;;5.90;97.70;;;;;;5109476;27;20035;-80
2021/04/09 02:20:31;;;;;;;;;;;5.90;97.80;;;;;;5103397;27;20078;-82
2021/04/09 02:22:58;;;;;;;18.33;13.35;;;5.80;97.90;;;;;;5152255;27;20065;-82
2021/04/09 02:25:24;;;;;;;18.55;14.25;;;5.80;98.10;;;;;;5137433;27;20043;-81
2021/04/09 02:27:51;;;;;;;16.08;13.05;;;5.80;98.10;;;;;;5124005;27;20040;-80
2021/04/09 02:30:19;;;;;;;20.13;11.27;;;5.80;98.20;;;;;;5133336;27;20038;-82
2021/04/09 02:32:45;;;;;;;19.85;13.45;;;5.80;98.30;;;;;;5135414;27;20448;-80
2021/04/09 02:35:13;;;;;;;15.73;13.55;;;5.80;98.50;;;;;;5116421;27;20038;-81
2021/04/09 02:37:44;;;;;;;17.73;13.07;;;5.80;98.50;;;;;;5106071;28;20096;-81
2021/04/09 02:40:17;;;;;;;18.00;11.95;;;5.80;98.60;;;;;;5120069;27;20179;-81
2021/04/09 02:42:49;;;;;;;19.73;13.25;;;5.80;98.60;;;;;;5120637;27;20103;-84
2021/04/09 02:45:17;;;;;;;17.58;13.43;;;5.80;98.70;;;;;;5131989;27;20050;-81
2021/04/09 02:47:44;;;;;;;20.23;13.90;;;6.20;99.10;;;;;;5126501;27;20119;-82
2021/04/09 02:50:19;;;;;;;20.45;14.45;;;6.00;98.70;;;;;;5130429;27;20039;-81
2021/04/09 02:52:54;;;;;;;18.10;12.95;;;5.90;98.80;;;;;;5120968;27;20036;-81
2021/04/09 02:55:27;;;;;;;22.77;14.68;;;5.80;98.80;;;;;;5119673;27;20563;-82
2021/04/09 02:57:54;;;;;;;19.05;13.07;;;5.90;98.90;;;;;;5146654;27;20039;-79
2021/04/09 03:00:21;;;;;;;23.20;13.95;;;5.80;99.10;;;;;;5112945;27;20106;-81
2021/04/09 03:02:49;;;;;;;20.08;14.55;;;5.80;99.10;;;;;;5123726;27;20046;-79
2021/04/09 03:05:17;;;;;;;20.38;14.48;;;5.90;99.20;;;;;;5119888;27;20039;-81
2021/04/09 03:07:43;;;;;;;22.33;13.65;;;5.80;99.30;;;;;;5103563;27;20114;-83
2021/04/09 03:10:15;;;;;;;17.55;13.07;;;5.70;99.50;;;;;;5112360;27;20468;-81
2021/04/09 03:12:41;;;;;;;21.35;15.40;;;5.70;99.70;;;;;;5118392;27;20039;-79
2021/04/09 03:15:10;;;;;;;21.05;14.32;;;5.80;99.60;;;;;;5149030;27;20043;-78
2021/04/09 03:18:03;;;;;;;20.23;13.73;;;5.80;99.70;;;;;;5129236;27;20099;-81
2021/04/09 03:20:30;;;;;;;21.10;13.15;;;5.80;99.90;;;;;;5106325;27;20047;-80
2021/04/09 03:22:56;;;;;;;18.85;14.13;;;5.80;99.70;;;;;;5134052;27;20064;-80
2021/04/09 03:25:21;;;;;;;22.02;12.98;;;5.80;99.90;;;;;;5113795;27;20129;-81
2021/04/09 03:27:47;;;;;;;20.50;13.88;;;5.80;99.90;;;;;;5123664;27;20035;-78
2021/04/09 03:30:15;;;;;;;20.70;14.50;;;5.70;99.90;;;;;;5133660;27;20043;-82
2021/04/09 03:32:41;;;;;;;20.02;16.77;;;5.70;99.90;;;;;;5125972;27;20503;-80
2021/04/09 03:35:08;;;;;;;24.30;15.80;;;5.80;99.90;;;;;;5114766;27;20050;-81
2021/04/09 03:37:34;;;;;;;22.20;15.95;;;5.70;99.90;;;;;;5105889;27;20042;-80
2021/04/09 03:40:00;;;;;;;21.75;16.40;;;5.70;99.90;;;;;;5132939;27;20059;-82
2021/04/09 03:42:25;;;;;;;21.75;15.15;;;5.70;99.90;;;;;;5123661;27;20062;-81
2021/04/09 03:44:51;;;;;;;22.13;13.50;;;5.70;99.90;;;;;;5100364;27;20031;-83
2021/04/09 03:47:17;;;;;;;21.08;15.20;;;5.60;99.90;;;;;;5114646;27;20035;-81
2021/04/09 03:49:43;;;;;;;23.73;15.80;;;5.60;99.90;;;;;;5114813;27;20064;-81
2021/04/09 03:52:09;;;;;;;21.13;16.92;;;5.70;99.90;;;;;;5138524;27;20041;-82
2021/04/09 03:54:35;;;;;;;22.13;14.15;;;5.60;99.90;;;;;;5118158;27;20031;-81
2021/04/09 03:57:01;;;;;;;21.38;14.52;;;5.60;99.90;;;;;;5096668;27;20070;-80
2021/04/09 03:59:27;;;;;;;23.40;16.17;;;5.40;99.90;;;;;;5132622;27;20443;-81
2021/04/09 04:01:53;;;;;;;24.77;15.85;;;5.50;99.90;;;;;;5114948;27;20065;-80
2021/04/09 04:04:19;;;;;;;25.15;16.50;;;5.50;99.90;;;;;;5154203;27;20035;-82
2021/04/09 04:06:44;;;;;;;23.48;15.25;;;5.80;99.90;;;;;;5121978;27;20030;-80
2021/04/09 04:09:10;;;;;;;21.50;16.77;;;5.40;99.90;;;;;;5120242;27;20039;-79
2021/04/09 04:11:36;;;;;;;25.52;17.15;;;5.30;99.90;;;;;;5111540;27;20488;-81
2021/04/09 04:14:02;;;;;;;26.92;16.58;;;5.30;99.90;;;;;;5119111;27;20043;-82
2021/04/09 04:16:28;;;;;;;;;;;5.30;99.90;;;;;;5139805;27;20444;-78
2021/04/09 04:18:54;;;;;;;25.30;16.00;;;5.90;99.90;;;;;;5117585;27;19923;-80
2021/04/09 04:21:20;;;;;;;21.08;15.50;;;6.10;99.90;;;;;;5080532;27;20059;-81
2021/04/09 04:23:46;;;;;;;24.15;15.57;;;5.50;99.90;;;;;;5117860;27;20073;-80
2021/04/09 04:26:12;;;;;;;24.02;17.55;;;5.60;99.90;;;;;;5096767;27;20043;-81
2021/04/09 04:28:38;;;;;;;24.00;17.90;;;5.50;99.90;;;;;;5114859;27;20332;-81
2021/04/09 04:31:04;;;;;;;27.63;17.15;;;5.60;99.90;;;;;;5112886;27;20424;-83
2021/04/09 04:33:30;;;;;;;25.88;16.85;;;5.60;99.90;;;;;;5115777;27;20027;-83
2021/04/09 04:35:56;;;;;;;21.98;17.45;;;5.60;99.90;;;;;;5096601;28;20078;-81
2021/04/09 04:38:21;;;;;;;26.52;15.98;;;5.50;99.90;;;;;;5100636;27;20035;-82
2021/04/09 04:40:48;;;;;;;26.08;17.00;;;5.50;99.90;;;;;;5144984;27;20054;-81
2021/04/09 04:43:15;;;;;;;28.00;18.73;;;5.60;99.90;;;;;;5135072;27;20088;-82
2021/04/09 04:45:41;;;;;;;23.60;17.23;;;6.50;99.90;;;;;;5100375;28;20384;-81
2021/04/09 04:48:10;;;;;;;26.73;19.35;;;5.60;99.90;;;;;;5095555;27;20035;-81
2021/04/09 04:50:36;;;;;;;24.45;17.17;;;5.70;99.90;;;;;;5112707;28;20039;-79
2021/04/09 04:53:04;;;;;;;25.02;17.70;;;5.80;99.90;;;;;;5129112;28;20130;-82
2021/04/09 04:55:30;;;;;;;26.42;17.83;;;5.60;99.90;;;;;;5108768;28;20039;-79
2021/04/09 04:57:56;;;;;;;27.73;19.02;;;5.60;99.90;;;;;;5118121;27;20035;-80
2021/04/09 05:00:22;;;;;;;25.10;17.20;;;5.60;99.90;;;;;;5133960;27;20388;-80
2021/04/09 05:02:48;;;;;;;26.65;16.50;;;5.60;99.90;;;;;;5103815;27;20376;-80
2021/04/09 05:05:14;;;;;;;31.75;17.55;;;5.60;99.90;;;;;;5140695;27;20041;-79
2021/04/09 05:07:40;;;;;;;;;;;5.60;99.90;;;;;;5134555;27;20540;-82
2021/04/09 05:10:06;;;;;;;23.42;16.25;;;5.50;99.90;;;;;;5097357;28;19919;-81
2021/04/09 05:12:33;;;;;;;26.38;16.83;;;5.40;99.90;;;;;;5123654;28;20144;-80
2021/04/09 05:14:59;;;;;;;26.77;17.58;;;5.40;99.90;;;;;;5112789;28;20039;-82
2021/04/09 05:17:25;;;;;;;29.45;17.35;;;5.30;99.90;;;;;;5127723;27;20360;-82
2021/04/09 05:19:51;;;;;;;27.25;17.27;;;5.30;99.90;;;;;;5096715;27;20039;-81
2021/04/09 05:22:17;;;;;;;24.25;17.25;;;5.20;99.90;;;;;;5138456;27;20043;-82
2021/04/09 05:24:46;;;;;;;24.88;18.70;;;5.20;99.90;;;;;;5139260;27;20043;-83
2021/04/09 05:27:12;;;;;;;28.05;18.15;;;5.30;99.90;;;;;;5114484;27;20465;-84
2021/04/09 05:29:39;;;;;;;;;;;5.40;99.90;;;;;;5108822;27;20039;-82
2021/04/09 05:32:06;;;;;;;27.45;15.43;;;5.60;99.90;;;;;;5103118;27;20383;-81
2021/04/09 05:34:32;;;;;;;26.67;17.13;;;5.30;99.90;;;;;;5139746;27;20024;-83
2021/04/09 05:36:58;;;;;;;25.65;17.90;;;5.40;99.90;;;;;;5117692;27;20142;-82
2021/04/09 05:39:24;;;;;;;26.52;17.92;;;5.40;99.90;;;;;;5109065;27;20027;-80
2021/04/09 05:41:50;;;;;;;24.27;15.07;;;5.40;99.90;;;;;;5135642;27;20047;-82
2021/04/09 05:44:15;;;;;;;21.38;15.00;;;5.40;99.90;;;;;;5108226;28;20123;-83
2021/04/09 05:46:41;;;;;;;27.80;16.92;;;5.40;99.90;;;;;;5126433;27;21879;-82
2021/04/09 05:49:07;;;;;;;25.88;16.33;;;5.40;99.90;;;;;;5141274;27;20448;-82
2021/04/09 05:51:35;;;;;;;24.73;17.63;;;6.10;99.90;;;;;;5134460;27;20043;-83
2021/04/09 05:54:03;;;;;;;23.10;16.13;;;6.00;99.90;;;;;;5089396;27;20513;-79
2021/04/09 05:56:30;;;;;;;22.95;15.32;;;5.70;99.90;;;;;;5127675;27;20050;-80
2021/04/09 05:58:56;;;;;;;24.63;15.35;;;5.80;99.90;;;;;;5124850;27;20035;-81
2021/04/09 06:01:21;;;;;;;22.98;14.05;;;6.00;99.90;;;;;;5099816;27;20058;-84
2021/04/09 06:03:48;;;;;;;27.40;15.73;;;6.50;99.90;;;;;;5126974;27;20035;-80
2021/04/09 06:06:14;;;;;;;24.25;13.98;;;6.10;99.90;;;;;;5135919;27;20074;-80
2021/04/09 06:08:40;;;;;;;20.98;14.57;;;6.10;99.90;;;;;;5098924;27;20435;-81
2021/04/09 06:11:06;;;;;;;20.50;13.70;;;6.30;99.90;;;;;;5116763;27;20055;-80
2021/04/09 06:13:32;;;;;;;20.20;14.60;;;6.20;99.90;;;;;;5119632;27;20027;-79
2021/04/09 06:15:58;;;;;;;22.55;14.50;;;6.30;99.90;;;;;;5096750;27;20039;-79
2021/04/09 06:18:24;;;;;;;;;;;6.40;99.90;;;;;;5091861;28;20044;-80
2021/04/09 06:20:50;;;;;;;25.27;12.80;;;6.30;99.90;;;;;;5114192;27;19919;-81
2021/04/09 06:23:16;;;;;;;24.25;14.88;;;6.30;99.90;;;;;;5126394;27;20532;-82
2021/04/09 06:25:42;;;;;;;21.85;13.68;;;6.40;99.90;;;;;;5084158;27;20031;-82
2021/04/09 06:28:08;;;;;;;20.75;13.07;;;7.20;99.90;;;;;;5115452;27;20035;-81
2021/04/09 06:30:33;;;;;;;19.83;13.07;;;6.40;99.90;;;;;;5098736;27;20050;-81
2021/04/09 06:32:59;;;;;;;20.88;13.13;;;6.40;99.90;;;;;;5136345;27;20031;-81
2021/04/09 06:35:25;;;;;;;20.60;12.80;;;6.40;99.90;;;;;;5115248;27;20495;-80
2021/04/09 06:37:51;;;;;;;21.52;12.85;;;6.40;99.90;;;;;;5098615;27;20031;-80
2021/04/09 06:40:19;;;;;;;21.33;13.07;;;6.60;99.90;;;;;;5082356;27;20550;-81
2021/04/09 06:42:45;;;;;;;22.65;12.80;;;6.50;99.90;;;;;;5092383;27;20047;-78
2021/04/09 06:45:11;;;;;;;;;;;6.50;99.90;;;;;;5129680;27;20073;-80
2021/04/09 06:47:37;;;;;;;18.25;12.77;;;6.60;99.90;;;;;;5140863;27;19925;-83
2021/04/09 06:50:04;;;;;;;18.95;12.50;;;6.60;99.90;;;;;;5099177;27;20043;-80
2021/04/09 06:52:30;;;;;;;23.77;14.35;;;6.70;99.90;;;;;;5136530;27;20032;-78
2021/04/09 06:55:01;;;;;;;19.20;11.73;;;6.80;99.90;;;;;;5115880;27;20387;-81
2021/04/09 06:57:28;;;;;;;20.65;10.93;;;6.80;99.90;;;;;;5133674;27;20469;-81
2021/04/09 06:59:57;;;;;;;17.48;11.93;;;6.90;99.90;;;;;;5099387;27;20058;-83
2021/04/09 07:02:24;;;;;;;20.90;11.85;;;6.90;99.90;;;;;;5115748;27;20046;-82
2021/04/09 07:04:49;;;;;;;;;;;6.90;99.90;;;;;;5152691;27;20126;-79
2021/04/09 07:07:17;;;;;;;19.00;10.88;;;7.00;99.90;;;;;;5139084;27;20492;-83
2021/04/09 07:09:46;;;;;;;19.05;12.25;;;7.30;99.90;;;;;;5114172;27;20047;-82
2021/04/09 07:12:30;;;;;;;18.75;12.07;;;7.20;99.90;;;;;;5127235;27;20517;-83
2021/04/09 07:15:04;;;;;;;21.05;11.60;;;7.40;99.90;;;;;;5125176;27;20088;-81
2021/04/09 07:17:31;;;;;;;16.40;12.18;;;7.50;99.90;;;;;;5115022;27;20031;-78
2021/04/09 07:20:22;;;;;;;21.92;10.80;;;7.50;99.90;;;;;;5126203;27;20466;-80
2021/04/09 07:22:54;;;;;;;16.25;12.13;;;7.60;99.90;;;;;;5146308;27;20049;-79
2021/04/09 07:25:22;;;;;;;24.17;12.18;;;7.60;99.90;;;;;;5110574;27;20122;-81
2021/04/09 07:27:50;;;;;;;23.48;11.38;;;7.60;99.90;;;;;;5123745;27;20039;-83
2021/04/09 07:30:27;;;;;;;18.15;11.88;;;7.60;99.90;;;;;;5143752;27;20041;-81
2021/04/09 07:33:08;;;;;;;19.70;10.90;;;7.60;99.90;;;;;;5128142;27;20044;-80
2021/04/09 07:35:49;;;;;;;18.45;11.10;;;7.70;99.90;;;;;;5117386;27;20234;-84
2021/04/09 07:38:26;;;;;;;17.42;10.57;;;7.70;99.90;;;;;;5133650;27;20031;-83
2021/04/09 07:41:02;;;;;;;18.85;10.73;;;7.80;99.90;;;;;;5124514;27;20369;-83
2021/04/09 07:43:29;;;;;;;21.27;10.93;;;7.80;99.90;;;;;;5112041;27;20057;-80
2021/04/09 07:45:57;;;;;;;13.70;9.85;;;7.90;99.90;;;;;;5135067;27;20300;-80
2021/04/09 07:48:38;;;;;;;19.55;10.18;;;8.00;99.90;;;;;;5133499;27;20427;-82
2021/04/09 07:51:06;;;;;;;14.15;8.68;;;7.90;99.90;;;;;;5114749;27;20122;-83
2021/04/09 07:53:32;;;;;;;15.35;9.27;;;8.10;99.90;;;;;;5135259;27;20039;-84
2021/04/09 07:56:06;;;;;;;15.15;10.50;;;8.10;99.90;;;;;;5124646;27;20074;-81
2021/04/09 07:58:36;;;;;;;14.07;9.32;;;8.20;99.90;;;;;;5115274;27;20039;-82
2021/04/09 08:01:03;;;;;;;15.32;10.20;;;8.10;99.90;;;;;;5114158;27;20039;-83
2021/04/09 08:03:33;;;;;;;16.73;9.10;;;8.20;99.90;;;;;;5131098;27;20031;-80
2021/04/09 08:06:13;;;;;;;14.10;9.43;;;8.10;99.90;;;;;;5119798;27;20039;-81
2021/04/09 08:09:00;;;;;;;12.07;9.02;;;8.20;99.90;;;;;;5133250;27;20037;-81
2021/04/09 08:11:33;;;;;;;15.45;9.05;;;8.20;99.90;;;;;;5121307;27;20078;-85
2021/04/09 08:14:07;;;;;;;15.77;9.50;;;8.20;99.90;;;;;;5114227;27;20041;-81
2021/04/09 08:16:44;;;;;;;22.85;8.77;;;8.20;99.90;;;;;;5121185;27;20031;-81
2021/04/09 08:19:25;;;;;;;15.63;8.70;;;8.10;99.90;;;;;;5126851;27;20039;-81
2021/04/09 08:22:00;;;;;;;13.35;7.50;;;8.10;99.90;;;;;;5135394;27;20045;-80
2021/04/09 08:24:30;;;;;;;14.68;8.05;;;8.10;99.90;;;;;;5116006;27;20045;-83
2021/04/09 08:26:56;;;;;;;13.75;7.28;;;8.10;99.90;;;;;;5119376;27;20046;-82
2021/04/09 08:29:23;;;;;;;13.55;7.60;;;8.10;99.90;;;;;;5110540;28;20039;-82
2021/04/09 08:31:50;;;;;;;20.20;7.70;;;8.20;99.90;;;;;;5114202;27;20535;-81
2021/04/09 08:34:19;;;;;;;15.32;8.23;;;8.20;99.90;;;;;;5112904;27;20091;-80
2021/04/09 08:36:46;;;;;;;15.95;7.38;;;8.30;99.90;;;;;;5140991;27;20122;-82
2021/04/09 08:39:15;;;;;;;11.30;8.02;;;8.40;99.90;;;;;;5085899;27;20039;-80
2021/04/09 08:41:42;;;;;;;15.38;8.15;;;8.40;99.90;;;;;;5124222;27;20055;-78
2021/04/09 08:44:11;;;;;;;13.50;8.10;;;8.50;99.90;;;;;;5142582;27;20060;-81
2021/04/09 08:46:38;;;;;;;12.73;7.35;;;8.50;99.90;;;;;;5144924;27;20411;-81
2021/04/09 08:49:05;;;;;;;13.02;6.38;;;8.50;99.90;;;;;;5083444;28;20066;-79
2021/04/09 08:51:32;;;;;;;12.88;6.65;;;8.60;99.90;;;;;;5131282;28;20053;-79
2021/04/09 08:54:29;;;;;;;16.27;6.47;;;8.70;99.90;;;;;;5126292;27;20077;-81
2021/04/09 08:56:57;;;;;;;14.25;6.55;;;8.50;99.90;;;;;;5126781;27;20122;-79
2021/04/09 08:59:37;;;;;;;14.30;6.88;;;8.50;99.90;;;;;;5136789;27;20392;-82
2021/04/09 09:02:15;;;;;;;13.02;6.72;;;8.60;99.90;;;;;;5119914;27;20472;-82
2021/04/09 09:04:58;;;;;;;10.30;6.32;;;8.50;99.90;;;;;;5113768;27;20035;-81
2021/04/09 09:07:42;;;;;;;14.80;7.20;;;8.50;99.90;;;;;;5117256;27;20035;-83
2021/04/09 09:10:30;;;;;;;11.48;6.63;;;8.50;99.90;;;;;;5132510;27;20064;-80
2021/04/09 09:13:08;;;;;;;11.00;6.15;;;8.40;99.90;;;;;;5130566;27;20056;-81
2021/04/09 09:21:05;;;;;;;12.27;6.35;;;8.50;99.90;;;;;;5135048;27;20075;-81
2021/04/09 09:23:48;;;;;;;14.23;6.57;;;8.40;99.90;;;;;;5116720;27;20031;-82
2021/04/09 09:26:28;;;;;;;13.13;6.78;;;8.50;99.90;;;;;;5134070;27;20031;-82
2021/04/09 09:29:33;;;;;;;12.20;6.88;;;8.50;99.90;;;;;;5136191;27;20030;-81
2021/04/09 09:32:00;;;;;;;16.90;6.97;;;8.40;99.90;;;;;;5107365;27;20043;-82
2021/04/09 09:34:27;;;;;;;14.02;7.15;;;8.30;99.90;;;;;;5143727;27;20118;-80
2021/04/09 09:37:06;;;;;;;12.57;6.22;;;8.20;99.90;;;;;;5135446;27;20059;-83
2021/04/09 09:39:41;;;;;;;9.82;5.45;;;8.20;99.90;;;;;;5130022;27;20467;-78
2021/04/09 09:42:14;;;;;;;13.18;6.32;;;8.20;99.90;;;;;;5122615;27;20043;-79
2021/04/09 09:44:40;;;;;;;12.98;5.43;;;8.50;99.90;;;;;;5137291;27;20463;-79
2021/04/09 09:47:16;;;;;;;10.40;5.78;;;8.30;99.90;;;;;;5140829;27;20054;-78
2021/04/09 09:50:05;;;;;;;8.15;4.90;;;8.40;99.90;;;;;;5140724;27;20146;-78
2021/04/09 09:52:40;;;;;;;10.98;6.55;;;8.50;99.90;;;;;;5117167;27;20179;-78
2021/04/09 09:55:25;;;;;;;11.40;5.65;;;8.70;99.90;;;;;;5135218;27;20031;-79
2021/04/09 09:58:10;;;;;;;11.07;5.78;;;8.90;99.90;;;;;;5126989;27;20031;-78
2021/04/09 10:00:38;;;;;;;11.75;5.72;;;9.20;99.90;;;;;;5134904;27;20038;-79
2021/04/09 10:03:26;;;;;;;14.02;6.43;;;9.30;99.90;;;;;;5137102;27;20457;-77
2021/04/09 10:06:12;;;;;;;10.57;5.57;;;9.40;99.90;;;;;;5133558;27;20426;-77
2021/04/09 10:08:39;;;;;;;10.70;5.47;;;9.30;99.90;;;;;;5105448;27;20039;-79
2021/04/09 10:11:16;;;;;;;9.98;6.32;;;9.30;99.90;;;;;;5128869;27;20091;-78
2021/04/09 10:13:43;;;;;;;10.27;5.63;;;9.30;99.90;;;;;;5109957;27;20498;-79
2021/04/09 10:16:12;;;;;;;13.30;6.25;;;9.20;99.90;;;;;;5139028;27;20131;-79
2021/04/09 10:18:40;;;;;;;9.70;5.85;;;9.20;99.90;;;;;;5147232;27;20462;-80
2021/04/09 10:21:15;;;;;;;12.07;6.07;;;9.30;99.90;;;;;;5097438;28;20035;-79
2021/04/09 10:23:43;;;;;;;12.40;6.05;;;9.20;99.90;;;;;;5127161;27;20042;-80
2021/04/09 10:26:10;;;;;;;10.52;5.60;;;9.10;99.90;;;;;;5119678;27;20069;-79
2021/04/09 10:28:37;;;;;;;9.35;5.88;;;9.10;99.90;;;;;;5127784;27;20091;-78
2021/04/09 10:31:14;;;;;;;11.30;5.60;;;9.00;99.90;;;;;;5122257;27;20046;-79
2021/04/09 10:33:40;;;;;;;;;;;9.10;99.90;;;;;;5119732;27;20121;-79
2021/04/09 10:36:25;;;;;;;11.95;5.40;;;9.20;99.90;;;;;;5122329;27;19919;-78
2021/04/09 10:38:52;;;;;;;9.40;4.65;;;9.00;99.90;;;;;;5123594;27;20519;-77
2021/04/09 10:41:38;;;;;;;11.63;5.90;;;9.00;99.90;;;;;;5116091;27;20038;-77
2021/04/09 10:44:15;;;;;;;9.63;5.63;;;9.10;99.90;;;;;;5151209;27;20039;-77
2021/04/09 10:46:43;;;;;;;8.25;5.53;;;9.20;99.90;;;;;;5133858;27;20062;-79
2021/04/09 10:49:11;;;;;;;8.80;5.25;;;9.40;99.90;;;;;;5115075;27;20038;-78
2021/04/09 10:51:47;;;;;;;8.65;5.45;;;9.40;99.90;;;;;;5144605;27;20039;-77
2021/04/09 10:54:19;;;;;;;10.68;5.75;;;9.50;99.90;;;;;;5115801;27;20031;-78
2021/04/09 10:56:54;;;;;;;12.80;5.32;;;9.50;99.90;;;;;;5147249;27;20038;-77
2021/04/09 10:59:26;;;;;;;9.70;5.40;;;9.50;99.90;;;;;;5124543;27;20130;-77
2021/04/09 11:01:52;;;;;;;12.38;5.82;;;9.50;99.90;;;;;;5115055;27;20361;-77
2021/04/09 11:04:19;;;;;;;10.02;5.18;;;9.60;99.90;;;;;;5121787;27;20523;-77
2021/04/09 11:06:49;;;;;;;9.05;5.30;;;9.60;99.90;;;;;;5146422;27;20425;-76
2021/04/09 11:09:15;;;;;;;11.15;5.85;;;9.60;99.90;;;;;;5109112;27;20121;-77
2021/04/09 11:11:41;;;;;;;9.63;5.30;;;9.60;99.90;;;;;;5128396;27;20037;-78
2021/04/09 11:14:16;;;;;;;9.68;5.43;;;9.60;99.90;;;;;;5116953;27;20039;-77
2021/04/09 11:16:56;;;;;;;7.35;4.72;;;9.80;99.90;;;;;;5133627;27;20035;-78
2021/04/09 11:19:23;;;;;;;8.82;4.88;;;9.90;99.90;;;;;;5146796;27;20044;-76
2021/04/09 11:21:51;;;;;;;9.75;5.18;;;10.00;99.70;;;;;;5134221;27;20068;-77
2021/04/09 11:24:39;;;;;;;9.38;5.40;;;10.00;99.50;;;;;;5137815;27;20031;-78
2021/04/09 11:27:20;;;;;;;11.85;5.10;;;9.80;99.60;;;;;;5144086;27;20035;-78
2021/04/09 11:29:47;;;;;;;13.27;6.07;;;9.70;99.60;;;;;;5128917;27;20072;-77
2021/04/09 11:32:18;;;;;;;10.48;5.63;;;9.60;99.60;;;;;;5135485;27;20030;-78
2021/04/09 11:34:50;;;;;;;10.43;5.13;;;9.40;99.90;;;;;;5109496;27;20488;-78
2021/04/09 11:37:17;;;;;;;13.05;5.15;;;9.30;99.90;;;;;;5148999;27;20066;-78
2021/04/09 11:39:48;;;;;;;10.48;5.22;;;9.30;99.90;;;;;;5151987;27;20507;-78
2021/04/09 11:42:14;;;;;;;11.38;6.15;;;9.40;99.90;;;;;;5120974;27;20091;-80
2021/04/09 11:44:41;;;;;;;9.07;6.32;;;9.70;99.90;;;;;;5097682;27;20471;-76
2021/04/09 11:47:12;;;;;;;13.45;5.88;;;9.70;99.40;;;;;;5097418;27;20065;-78
2021/04/09 11:49:38;;;;;;;11.35;5.97;;;9.70;99.50;;;;;;5135366;27;20031;-77
2021/04/09 11:52:06;;;;;;;8.48;5.93;;;9.60;99.90;;;;;;5123782;27;20092;-77
2021/04/09 11:54:37;;;;;;;14.27;6.10;;;9.60;99.80;;;;;;5127178;27;20099;-78
2021/04/09 11:57:04;;;;;;;12.90;5.78;;;9.50;99.80;;;;;;5149884;27;20046;-77
2021/04/09 11:59:34;;;;;;;10.20;5.88;;;9.30;99.90;;;;;;5123498;27;20031;-78
2021/04/09 12:02:26;;;;;;;13.63;6.28;;;9.20;99.90;;;;;;5145916;27;20034;-77
2021/04/09 12:04:53;;;;;;;13.52;6.03;;;9.20;99.90;;;;;;5127892;27;20102;-78
2021/04/09 12:07:27;;;;;;;13.00;6.07;;;9.10;99.90;;;;;;5123148;27;20038;-77
2021/04/09 12:09:57;;;;;;;9.20;5.40;;;9.00;99.90;;;;;;5138608;27;20042;-77
2021/04/09 12:12:25;;;;;;;13.02;5.75;;;9.00;99.90;;;;;;5134131;27;20406;-78
2021/04/09 12:14:56;;;;;;;9.82;5.60;;;8.90;99.90;;;;;;5114867;27;20027;-78
2021/04/09 12:17:24;;;;;;;11.10;5.30;;;8.80;99.90;;;;;;5125646;27;20049;-77
2021/04/09 12:19:51;;;;;;;11.55;5.63;;;8.70;99.90;;;;;;5138689;27;20340;-77
2021/04/09 12:22:18;;;;;;;10.45;5.97;;;8.70;99.90;;;;;;5152363;27;20030;-78
2021/04/09 12:24:44;;;;;;;11.40;5.72;;;8.70;99.90;;;;;;5114233;27;20038;-78
2021/04/09 12:27:11;;;;;;;11.65;5.80;;;8.50;99.90;;;;;;5132110;27;20499;-78
2021/04/09 12:29:38;;;;;;;9.75;5.55;;;8.40;99.90;;;;;;5150706;27;20066;-77
2021/04/09 12:32:05;;;;;;;11.32;6.13;;;8.40;99.90;;;;;;5139647;27;20039;-79
2021/04/09 12:34:31;;;;;;;11.98;6.43;;;7.90;99.90;;;;;;5102793;27;20483;-77
2021/04/09 12:36:57;;;;;;;;;;;7.80;99.90;;;;;;5101101;28;20039;-78
2021/04/09 12:39:23;;;;;;;14.18;4.45;;;7.70;99.90;;;;;;5113306;28;19937;-79
2021/04/09 12:41:49;;;;;;;;;;;7.60;99.90;;;;;;5125680;27;20055;-79
2021/04/09 12:44:16;;;;;;;13.38;4.18;;;7.40;99.90;;;;;;5130124;27;19915;-79
2021/04/09 12:46:47;;;;;;;13.52;5.65;;;7.10;99.90;;;;;;5133927;27;20067;-79
2021/04/09 12:49:18;;;;;;;20.05;10.70;;;6.50;99.90;;;;;;5106808;28;20043;-78
2021/04/09 12:51:46;;;;;;;19.80;6.88;;;6.90;99.90;;;;;;5142802;27;20435;-78
2021/04/09 12:54:12;;;;;;;15.02;5.25;;;6.80;99.90;;;;;;5135390;28;20035;-78
2021/04/09 12:56:44;;;;;;;14.88;4.65;;;6.70;99.90;;;;;;5094402;28;20046;-77
2021/04/09 12:59:10;;;;;;;;;;;6.60;99.90;;;;;;5130814;28;20031;-78
2021/04/09 13:01:36;;;;;;;12.35;3.95;;;6.40;99.90;;;;;;5093541;27;20023;-77
2021/04/09 13:04:02;;;;;;;12.15;4.32;;;6.40;99.90;;;;;;5130381;28;20114;-77